sensor_id;sensor_type;location;lat;lon;timestamp;pressure;altitude;pressure_sealevel;temperature;humidity
8890;BME280;4481;43.406;24.454;2023-04-15T00:01:45;77153.41;;;-144.09;100.00
8890;BME280;4481;43.406;24.454;2023-04-15T00:04:12;77122.06;;;-144.09;100.00
8890;BME280;4481;43.406;24.454;2023-04-15T00:06:38;77149.25;;;-144.09;100.00
8890;BME280;4481;43.406;24.454;2023-04-15T00:09:04;77153.41;;;-144.09;100.00
8890;BME280;4481;43.406;24.454;2023-04-15T00:11:30;77140.88;;;-144.09;100.00
8890;BME280;4481;43.406;24.454;2023-04-15T00:13:57;77165.97;;;-144.09;100.00
8890;BME280;4481;43.406;24.454;2023-04-15T00:16:23;77184.78;;;-144.09;100.00
8890;BME280;4481;43.406;24.454;2023-04-15T00:18:50;77205.66;;;-144.09;100.00
8890;BME280;4481;43.406;24.454;2023-04-15T00:21:16;77211.94;;;-144.09;100.00
8890;BME280;4481;43.406;24.454;2023-04-15T00:23:42;77195.22;;;-144.09;100.00
8890;BME280;4481;43.406;24.454;2023-04-15T00:26:08;77205.66;;;-144.09;100.00
8890;BME280;4481;43.406;24.454;2023-04-15T00:28:34;77209.84;;;-144.09;100.00
8890;BME280;4481;43.406;24.454;2023-04-15T00:31:01;77226.56;;;-144.09;100.00
8890;BME280;4481;43.406;24.454;2023-04-15T00:33:28;77207.75;;;-144.09;100.00
8890;BME280;4481;43.406;24.454;2023-04-15T00:35:54;77186.84;;;-144.09;100.00
8890;BME280;4481;43.406;24.454;2023-04-15T00:38:21;77178.50;;;-144.09;100.00
8890;BME280;4481;43.406;24.454;2023-04-15T00:40:47;77186.84;;;-144.09;100.00
8890;BME280;4481;43.406;24.454;2023-04-15T00:43:13;77201.50;;;-144.09;100.00
8890;BME280;4481;43.406;24.454;2023-04-15T00:45:39;77182.69;;;-144.09;100.00
8890;BME280;4481;43.406;24.454;2023-04-15T00:48:07;77188.94;;;-144.09;100.00
8890;BME280;4481;43.406;24.454;2023-04-15T00:50:33;77199.41;;;-144.09;100.00
8890;BME280;4481;43.406;24.454;2023-04-15T00:53:00;77199.41;;;-144.09;100.00
8890;BME280;4481;43.406;24.454;2023-04-15T00:55:26;77197.31;;;-144.09;100.00
8890;BME280;4481;43.406;24.454;2023-04-15T00:57:52;77191.03;;;-144.09;100.00
8890;BME280;4481;43.406;24.454;2023-04-15T01:00:19;77195.22;;;-144.09;100.00
8890;BME280;4481;43.406;24.454;2023-04-15T01:02:45;77195.22;;;-144.09;100.00
8890;BME280;4481;43.406;24.454;2023-04-15T01:05:12;77207.75;;;-144.09;100.00
8890;BME280;4481;43.406;24.454;2023-04-15T01:07:41;77205.66;;;-144.09;100.00
8890;BME280;4481;43.406;24.454;2023-04-15T01:10:08;77197.31;;;-144.09;100.00
8890;BME280;4481;43.406;24.454;2023-04-15T01:12:34;77205.66;;;-144.09;100.00
8890;BME280;4481;43.406;24.454;2023-04-15T01:15:02;77211.94;;;-144.09;100.00
8890;BME280;4481;43.406;24.454;2023-04-15T01:17:29;77207.75;;;-144.09;100.00
8890;BME280;4481;43.406;24.454;2023-04-15T01:19:55;77216.13;;;-144.09;100.00
8890;BME280;4481;43.406;24.454;2023-04-15T01:22:23;77251.66;;;-144.09;100.00
8890;BME280;4481;43.406;24.454;2023-04-15T01:24:54;77249.56;;;-144.09;100.00
8890;BME280;4481;43.406;24.454;2023-04-15T01:27:21;77257.91;;;-144.09;100.00
8890;BME280;4481;43.406;24.454;2023-04-15T01:29:47;77253.75;;;-144.09;100.00
8890;BME280;4481;43.406;24.454;2023-04-15T01:32:13;77253.75;;;-144.09;100.00
8890;BME280;4481;43.406;24.454;2023-04-15T01:34:40;77247.47;;;-144.09;100.00
8890;BME280;4481;43.406;24.454;2023-04-15T01:37:06;77216.13;;;-144.09;100.00
8890;BME280;4481;43.406;24.454;2023-04-15T01:39:32;77214.03;;;-144.09;100.00
8890;BME280;4481;43.406;24.454;2023-04-15T01:41:58;77197.31;;;-144.09;100.00
8890;BME280;4481;43.406;24.454;2023-04-15T01:44:25;77191.03;;;-144.09;100.00
8890;BME280;4481;43.406;24.454;2023-04-15T01:46:52;77178.50;;;-144.09;100.00
8890;BME280;4481;43.406;24.454;2023-04-15T01:49:18;77174.31;;;-144.09;100.00
8890;BME280;4481;43.406;24.454;2023-04-15T01:51:44;77180.59;;;-144.09;100.00
8890;BME280;4481;43.406;24.454;2023-04-15T01:54:10;77188.94;;;-144.09;100.00
8890;BME280;4481;43.406;24.454;2023-04-15T01:56:36;77184.78;;;-144.09;100.00
8890;BME280;4481;43.406;24.454;2023-04-15T01:59:03;77170.16;;;-144.09;100.00
8890;BME280;4481;43.406;24.454;2023-04-15T02:01:30;77165.97;;;-144.09;100.00
8890;BME280;4481;43.406;24.454;2023-04-15T02:03:56;77178.50;;;-144.09;100.00
8890;BME280;4481;43.406;24.454;2023-04-15T02:06:22;77188.94;;;-144.09;100.00
8890;BME280;4481;43.406;24.454;2023-04-15T02:08:48;77182.69;;;-144.09;100.00
8890;BME280;4481;43.406;24.454;2023-04-15T02:11:15;77172.22;;;-144.09;100.00
8890;BME280;4481;43.406;24.454;2023-04-15T02:13:41;77195.22;;;-144.09;100.00
8890;BME280;4481;43.406;24.454;2023-04-15T02:16:14;77214.03;;;-144.09;100.00
8890;BME280;4481;43.406;24.454;2023-04-15T02:18:42;77203.59;;;-144.09;100.00
8890;BME280;4481;43.406;24.454;2023-04-15T02:21:08;77211.94;;;-144.09;100.00
8890;BME280;4481;43.406;24.454;2023-04-15T02:23:35;77199.41;;;-144.09;100.00
8890;BME280;4481;43.406;24.454;2023-04-15T02:26:01;77191.03;;;-144.09;100.00
8890;BME280;4481;43.406;24.454;2023-04-15T02:28:27;77199.41;;;-144.09;100.00
8890;BME280;4481;43.406;24.454;2023-04-15T02:30:53;77207.75;;;-144.09;100.00
8890;BME280;4481;43.406;24.454;2023-04-15T02:33:21;77214.03;;;-144.09;100.00
8890;BME280;4481;43.406;24.454;2023-04-15T02:35:48;77203.59;;;-144.09;100.00
8890;BME280;4481;43.406;24.454;2023-04-15T02:38:15;77214.03;;;-144.09;100.00
8890;BME280;4481;43.406;24.454;2023-04-15T02:40:42;77303.91;;;-144.09;100.00
8890;BME280;4481;43.406;24.454;2023-04-15T02:43:08;77295.53;;;-144.09;100.00
8890;BME280;4481;43.406;24.454;2023-04-15T02:45:34;77295.53;;;-144.09;100.00
8890;BME280;4481;43.406;24.454;2023-04-15T02:48:00;77289.28;;;-144.09;100.00
8890;BME280;4481;43.406;24.454;2023-04-15T02:50:30;77301.81;;;-144.09;100.00
8890;BME280;4481;43.406;24.454;2023-04-15T02:52:57;77372.88;;;-144.09;100.00
8890;BME280;4481;43.406;24.454;2023-04-15T02:55:25;77339.44;;;-144.09;100.00
8890;BME280;4481;43.406;24.454;2023-04-15T02:57:51;77356.16;;;-144.09;100.00
8890;BME280;4481;43.406;24.454;2023-04-15T03:00:17;77354.06;;;-144.09;100.00
8890;BME280;4481;43.406;24.454;2023-04-15T03:02:45;77345.69;;;-144.09;100.00
8890;BME280;4481;43.406;24.454;2023-04-15T03:05:12;77333.16;;;-144.09;100.00
8890;BME280;4481;43.406;24.454;2023-04-15T03:07:38;77356.16;;;-144.09;100.00
8890;BME280;4481;43.406;24.454;2023-04-15T03:10:06;77354.06;;;-144.09;100.00
8890;BME280;4481;43.406;24.454;2023-04-15T03:12:33;77351.97;;;-144.09;100.00
8890;BME280;4481;43.406;24.454;2023-04-15T03:14:59;77370.78;;;-144.09;100.00
8890;BME280;4481;43.406;24.454;2023-04-15T03:17:26;77349.88;;;-144.09;100.00
8890;BME280;4481;43.406;24.454;2023-04-15T03:19:52;77358.25;;;-144.09;100.00
8890;BME280;4481;43.406;24.454;2023-04-15T03:22:18;77368.69;;;-144.09;100.00
8890;BME280;4481;43.406;24.454;2023-04-15T03:24:44;77370.78;;;-144.09;100.00
8890;BME280;4481;43.406;24.454;2023-04-15T03:27:11;77374.97;;;-144.09;100.00
8890;BME280;4481;43.406;24.454;2023-04-15T03:29:38;77362.41;;;-144.09;100.00
8890;BME280;4481;43.406;24.454;2023-04-15T03:32:04;77356.16;;;-144.09;100.00
8890;BME280;4481;43.406;24.454;2023-04-15T03:34:30;77372.88;;;-144.09;100.00
8890;BME280;4481;43.406;24.454;2023-04-15T03:36:56;77395.88;;;-144.09;100.00
8890;BME280;4481;43.406;24.454;2023-04-15T03:39:22;77387.50;;;-144.09;100.00
8890;BME280;4481;43.406;24.454;2023-04-15T03:41:48;77385.41;;;-144.09;100.00
8890;BME280;4481;43.406;24.454;2023-04-15T03:44:15;77429.31;;;-144.09;100.00
8890;BME280;4481;43.406;24.454;2023-04-15T03:46:41;77475.28;;;-144.09;100.00
8890;BME280;4481;43.406;24.454;2023-04-15T03:49:07;77450.19;;;-144.09;100.00
8890;BME280;4481;43.406;24.454;2023-04-15T03:51:34;77414.66;;;-144.09;100.00
8890;BME280;4481;43.406;24.454;2023-04-15T03:54:00;77462.75;;;-144.09;100.00
8890;BME280;4481;43.406;24.454;2023-04-15T03:56:26;77460.66;;;-144.09;100.00
8890;BME280;4481;43.406;24.454;2023-04-15T03:58:52;77429.31;;;-144.09;100.00
8890;BME280;4481;43.406;24.454;2023-04-15T04:01:19;77435.56;;;-144.09;100.00
8890;BME280;4481;43.406;24.454;2023-04-15T04:03:45;77450.19;;;-144.09;100.00
8890;BME280;4481;43.406;24.454;2023-04-15T04:06:12;77433.47;;;-144.09;100.00
8890;BME280;4481;43.406;24.454;2023-04-15T04:08:38;77441.84;;;-144.09;100.00
8890;BME280;4481;43.406;24.454;2023-04-15T04:11:04;77448.13;;;-144.09;100.00
8890;BME280;4481;43.406;24.454;2023-04-15T04:13:31;77435.56;;;-144.09;100.00
8890;BME280;4481;43.406;24.454;2023-04-15T04:15:57;77446.03;;;-144.09;100.00
8890;BME280;4481;43.406;24.454;2023-04-15T04:18:24;77431.38;;;-144.09;100.00
8890;BME280;4481;43.406;24.454;2023-04-15T04:20:50;77410.50;;;-144.09;100.00
8890;BME280;4481;43.406;24.454;2023-04-15T04:23:16;77423.03;;;-144.09;100.00
8890;BME280;4481;43.406;24.454;2023-04-15T04:25:42;77410.50;;;-144.09;100.00
8890;BME280;4481;43.406;24.454;2023-04-15T04:28:08;77408.41;;;-144.09;100.00
8890;BME280;4481;43.406;24.454;2023-04-15T04:30:36;77391.69;;;-144.09;100.00
8890;BME280;4481;43.406;24.454;2023-04-15T04:33:02;77383.31;;;-144.09;100.00
8890;BME280;4481;43.406;24.454;2023-04-15T04:35:29;77377.06;;;-144.09;100.00
8890;BME280;4481;43.406;24.454;2023-04-15T04:37:56;77358.25;;;-144.09;100.00
8890;BME280;4481;43.406;24.454;2023-04-15T04:40:22;77360.34;;;-144.09;100.00
8890;BME280;4481;43.406;24.454;2023-04-15T04:42:48;77343.59;;;-144.09;100.00
8890;BME280;4481;43.406;24.454;2023-04-15T04:45:15;77331.06;;;-144.09;100.00
8890;BME280;4481;43.406;24.454;2023-04-15T04:47:41;77316.44;;;-144.09;100.00
8890;BME280;4481;43.406;24.454;2023-04-15T04:50:08;77293.44;;;-144.09;100.00
8890;BME280;4481;43.406;24.454;2023-04-15T04:52:35;77272.56;;;-144.09;100.00
8890;BME280;4481;43.406;24.454;2023-04-15T04:55:01;77245.38;;;-144.09;100.00
8890;BME280;4481;43.406;24.454;2023-04-15T04:57:27;77218.22;;;-144.09;100.00
8890;BME280;4481;43.406;24.454;2023-04-15T04:59:53;77197.31;;;-144.09;100.00
8890;BME280;4481;43.406;24.454;2023-04-15T05:02:19;77174.31;;;-144.09;100.00
8890;BME280;4481;43.406;24.454;2023-04-15T05:04:46;77157.59;;;-144.09;100.00
8890;BME280;4481;43.406;24.454;2023-04-15T05:07:12;77145.06;;;-144.09;100.00
8890;BME280;4481;43.406;24.454;2023-04-15T05:09:39;77117.91;;;-144.09;100.00
8890;BME280;4481;43.406;24.454;2023-04-15T05:12:05;77086.53;;;-144.09;100.00
8890;BME280;4481;43.406;24.454;2023-04-15T05:14:33;77055.19;;;-144.09;100.00
8890;BME280;4481;43.406;24.454;2023-04-15T05:16:59;77028.03;;;-144.09;100.00
8890;BME280;4481;43.406;24.454;2023-04-15T05:19:25;76990.41;;;-144.09;100.00
8890;BME280;4481;43.406;24.454;2023-04-15T05:21:51;76963.25;;;-144.09;100.00
8890;BME280;4481;43.406;24.454;2023-04-15T05:24:18;76931.91;;;-144.09;100.00
8890;BME280;4481;43.406;24.454;2023-04-15T05:26:44;76915.19;;;-144.09;100.00
8890;BME280;4481;43.406;24.454;2023-04-15T05:29:10;76873.38;;;-144.09;99.62
8890;BME280;4481;43.406;24.454;2023-04-15T05:31:37;76862.94;;;-144.09;99.45
8890;BME280;4481;43.406;24.454;2023-04-15T05:34:03;76821.13;;;-144.09;98.75
8890;BME280;4481;43.406;24.454;2023-04-15T05:36:30;76756.34;;;-144.09;97.13
8890;BME280;4481;43.406;24.454;2023-04-15T05:38:56;76710.38;;;-144.09;96.48
8890;BME280;4481;43.406;24.454;2023-04-15T05:41:22;76679.03;;;-144.09;95.78
8890;BME280;4481;43.406;24.454;2023-04-15T05:43:49;76676.94;;;-144.09;94.72
8890;BME280;4481;43.406;24.454;2023-04-15T05:46:15;76685.31;;;-144.09;94.02
8890;BME280;4481;43.406;24.454;2023-04-15T05:48:41;76639.34;;;-144.09;93.42
8890;BME280;4481;43.406;24.454;2023-04-15T05:51:07;76593.38;;;-144.09;91.19
8890;BME280;4481;43.406;24.454;2023-04-15T05:53:34;76536.94;;;-144.09;90.97
8890;BME280;4481;43.406;24.454;2023-04-15T05:56:00;76470.09;;;-144.09;90.25
8890;BME280;4481;43.406;24.454;2023-04-15T05:58:26;76419.94;;;-144.09;89.25
8890;BME280;4481;43.406;24.454;2023-04-15T06:00:53;76386.50;;;-144.09;87.39
8890;BME280;4481;43.406;24.454;2023-04-15T06:03:19;76348.91;;;-144.09;86.87
8890;BME280;4481;43.406;24.454;2023-04-15T06:05:46;76311.28;;;-144.09;86.37
8890;BME280;4481;43.406;24.454;2023-04-15T06:08:12;76290.41;;;-144.09;85.51
8890;BME280;4481;43.406;24.454;2023-04-15T06:10:38;76259.06;;;-144.09;85.48
8890;BME280;4481;43.406;24.454;2023-04-15T06:13:05;76233.97;;;-144.09;84.35
8890;BME280;4481;43.406;24.454;2023-04-15T06:15:31;76190.09;;;-144.09;83.68
8890;BME280;4481;43.406;24.454;2023-04-15T06:17:58;76150.41;;;-144.09;82.65
8890;BME280;4481;43.406;24.454;2023-04-15T06:20:24;76129.50;;;-144.09;81.26
8890;BME280;4481;43.406;24.454;2023-04-15T06:22:51;76119.06;;;-144.09;79.19
8890;BME280;4481;43.406;24.454;2023-04-15T06:25:17;76096.09;;;-144.09;77.01
8890;BME280;4481;43.406;24.454;2023-04-15T06:27:43;76058.47;;;-144.09;74.38
8890;BME280;4481;43.406;24.454;2023-04-15T06:30:10;76043.84;;;-144.09;70.39
8890;BME280;4481;43.406;24.454;2023-04-15T06:32:36;76027.13;;;-144.09;69.12
8890;BME280;4481;43.406;24.454;2023-04-15T06:35:04;76012.50;;;-144.09;67.50
8890;BME280;4481;43.406;24.454;2023-04-15T06:37:30;75979.09;;;-144.09;66.39
8890;BME280;4481;43.406;24.454;2023-04-15T06:39:57;75987.44;;;-144.09;66.49
8890;BME280;4481;43.406;24.454;2023-04-15T06:42:23;75945.66;;;-144.09;64.96
8890;BME280;4481;43.406;24.454;2023-04-15T06:44:49;75914.31;;;-144.09;64.44
8890;BME280;4481;43.406;24.454;2023-04-15T06:47:15;75878.81;;;-144.09;62.26
8890;BME280;4481;43.406;24.454;2023-04-15T06:49:41;75855.81;;;-144.09;61.64
8890;BME280;4481;43.406;24.454;2023-04-15T06:52:09;75841.19;;;-144.09;60.74
8890;BME280;4481;43.406;24.454;2023-04-15T06:54:35;75824.50;;;-144.09;60.59
8890;BME280;4481;43.406;24.454;2023-04-15T06:57:02;75826.56;;;-144.09;58.61
8890;BME280;4481;43.406;24.454;2023-04-15T06:59:28;75799.41;;;-144.09;58.89
8890;BME280;4481;43.406;24.454;2023-04-15T07:01:54;75766.00;;;-144.09;56.79
8890;BME280;4481;43.406;24.454;2023-04-15T07:04:20;75745.09;;;-144.09;54.86
8890;BME280;4481;43.406;24.454;2023-04-15T07:06:46;75743.00;;;-144.09;54.64
8890;BME280;4481;43.406;24.454;2023-04-15T07:09:13;75740.94;;;-144.09;50.98
8890;BME280;4481;43.406;24.454;2023-04-15T07:11:39;75728.38;;;-144.09;51.76
8890;BME280;4481;43.406;24.454;2023-04-15T07:14:05;75751.38;;;-144.09;49.73
8890;BME280;4481;43.406;24.454;2023-04-15T07:16:32;75849.56;;;-144.09;49.48
8890;BME280;4481;43.406;24.454;2023-04-15T07:18:58;75864.19;;;-144.09;50.15
8890;BME280;4481;43.406;24.454;2023-04-15T07:21:24;75851.66;;;-144.09;51.32
8890;BME280;4481;43.406;24.454;2023-04-15T07:23:52;75793.16;;;-144.09;50.60
8890;BME280;4481;43.406;24.454;2023-04-15T07:26:18;75811.97;;;-144.09;49.24
8890;BME280;4481;43.406;24.454;2023-04-15T07:28:45;75880.91;;;-144.09;50.91
8890;BME280;4481;43.406;24.454;2023-04-15T07:31:11;75841.19;;;-144.09;50.33
8890;BME280;4481;43.406;24.454;2023-04-15T07:33:38;76006.25;;;-144.09;53.78
8890;BME280;4481;43.406;24.454;2023-04-15T07:36:04;75987.44;;;-144.09;54.96
8890;BME280;4481;43.406;24.454;2023-04-15T07:38:30;75960.28;;;-144.09;54.49
8890;BME280;4481;43.406;24.454;2023-04-15T07:40:56;75958.19;;;-144.09;54.25
8890;BME280;4481;43.406;24.454;2023-04-15T07:43:23;75878.81;;;-144.09;54.71
8890;BME280;4481;43.406;24.454;2023-04-15T07:45:49;75818.22;;;-144.09;53.17
8890;BME280;4481;43.406;24.454;2023-04-15T07:48:15;75786.88;;;-144.09;52.85
8890;BME280;4481;43.406;24.454;2023-04-15T07:50:42;75730.47;;;-144.09;52.01
8890;BME280;4481;43.406;24.454;2023-04-15T07:53:08;75745.09;;;-144.09;52.93
8890;BME280;4481;43.406;24.454;2023-04-15T07:55:34;75734.66;;;-144.09;51.71
8890;BME280;4481;43.406;24.454;2023-04-15T07:58:00;75860.00;;;-144.09;51.22
8890;BME280;4481;43.406;24.454;2023-04-15T08:00:27;75826.56;;;-144.09;50.78
8890;BME280;4481;43.406;24.454;2023-04-15T08:02:55;75791.06;;;-144.09;51.23
8890;BME280;4481;43.406;24.454;2023-04-15T08:05:23;75782.72;;;-144.09;49.82
8890;BME280;4481;43.406;24.454;2023-04-15T08:07:50;75799.41;;;-144.09;50.00
8890;BME280;4481;43.406;24.454;2023-04-15T08:10:16;75795.25;;;-144.09;50.61
8890;BME280;4481;43.406;24.454;2023-04-15T08:12:42;75797.34;;;-144.09;50.82
8890;BME280;4481;43.406;24.454;2023-04-15T08:15:09;75782.72;;;-144.09;51.67
8890;BME280;4481;43.406;24.454;2023-04-15T08:17:36;75759.72;;;-144.09;52.59
8890;BME280;4481;43.406;24.454;2023-04-15T08:20:03;75770.16;;;-144.09;52.61
8890;BME280;4481;43.406;24.454;2023-04-15T08:22:30;75743.00;;;-144.09;50.58
8890;BME280;4481;43.406;24.454;2023-04-15T08:24:56;75763.91;;;-144.09;49.32
8890;BME280;4481;43.406;24.454;2023-04-15T08:27:22;75816.13;;;-144.09;50.68
8890;BME280;4481;43.406;24.454;2023-04-15T08:29:48;75843.28;;;-144.09;52.93
8890;BME280;4481;43.406;24.454;2023-04-15T08:32:15;75870.44;;;-144.09;55.05
8890;BME280;4481;43.406;24.454;2023-04-15T08:34:41;75905.97;;;-144.09;57.50
8890;BME280;4481;43.406;24.454;2023-04-15T08:37:08;75943.56;;;-144.09;59.08
8890;BME280;4481;43.406;24.454;2023-04-15T08:39:34;75949.84;;;-144.09;58.76
8890;BME280;4481;43.406;24.454;2023-04-15T08:42:01;75914.31;;;-144.09;58.52
8890;BME280;4481;43.406;24.454;2023-04-15T08:44:29;75895.53;;;-144.09;56.63
8890;BME280;4481;43.406;24.454;2023-04-15T08:46:59;75855.81;;;-144.09;57.57
8890;BME280;4481;43.406;24.454;2023-04-15T08:49:26;75918.50;;;-144.09;57.80
8890;BME280;4481;43.406;24.454;2023-04-15T08:51:54;75928.94;;;-144.09;56.99
8890;BME280;4481;43.406;24.454;2023-04-15T08:54:23;75872.53;;;-144.09;58.04
8890;BME280;4481;43.406;24.454;2023-04-15T08:56:51;75862.09;;;-144.09;57.52
8890;BME280;4481;43.406;24.454;2023-04-15T08:59:18;75905.97;;;-144.09;58.07
8890;BME280;4481;43.406;24.454;2023-04-15T09:01:45;75920.59;;;-144.09;58.83
8890;BME280;4481;43.406;24.454;2023-04-15T09:04:12;75922.69;;;-144.09;58.73
8890;BME280;4481;43.406;24.454;2023-04-15T09:06:39;75920.59;;;-144.09;58.22
8890;BME280;4481;43.406;24.454;2023-04-15T09:09:06;75903.88;;;-144.09;57.49
8890;BME280;4481;43.406;24.454;2023-04-15T09:11:32;75880.91;;;-144.09;56.88
8890;BME280;4481;43.406;24.454;2023-04-15T09:13:59;75968.63;;;-144.09;58.75
8890;BME280;4481;43.406;24.454;2023-04-15T09:16:25;75928.94;;;-144.09;59.75
8890;BME280;4481;43.406;24.454;2023-04-15T09:18:52;75899.69;;;-144.09;60.63
8890;BME280;4481;43.406;24.454;2023-04-15T09:21:19;75912.22;;;-144.09;60.76
8890;BME280;4481;43.406;24.454;2023-04-15T09:23:57;75874.63;;;-144.09;60.81
8890;BME280;4481;43.406;24.454;2023-04-15T09:26:31;75862.09;;;-144.09;59.39
8890;BME280;4481;43.406;24.454;2023-04-15T09:29:03;75887.16;;;-144.09;59.63
8890;BME280;4481;43.406;24.454;2023-04-15T09:31:30;75880.91;;;-144.09;59.14
8890;BME280;4481;43.406;24.454;2023-04-15T09:33:56;75912.22;;;-144.09;59.75
8890;BME280;4481;43.406;24.454;2023-04-15T09:36:22;75868.34;;;-144.09;58.69
8890;BME280;4481;43.406;24.454;2023-04-15T09:38:54;75866.28;;;-144.09;56.55
8890;BME280;4481;43.406;24.454;2023-04-15T09:41:21;75849.56;;;-144.09;57.23
8890;BME280;4481;43.406;24.454;2023-04-15T09:43:48;75824.50;;;-144.09;58.67
8890;BME280;4481;43.406;24.454;2023-04-15T09:46:14;75811.97;;;-144.09;59.32
8890;BME280;4481;43.406;24.454;2023-04-15T09:48:40;75791.06;;;-144.09;55.85
8890;BME280;4481;43.406;24.454;2023-04-15T09:51:07;75816.13;;;-144.09;57.74
8890;BME280;4481;43.406;24.454;2023-04-15T09:53:34;75807.78;;;-144.09;57.90
8890;BME280;4481;43.406;24.454;2023-04-15T09:56:01;75780.63;;;-144.09;57.16
8890;BME280;4481;43.406;24.454;2023-04-15T09:58:29;75841.19;;;-144.09;56.42
8890;BME280;4481;43.406;24.454;2023-04-15T10:00:57;75855.81;;;-144.09;56.45
8890;BME280;4481;43.406;24.454;2023-04-15T10:03:25;75828.66;;;-144.09;55.91
8890;BME280;4481;43.406;24.454;2023-04-15T10:05:53;75826.56;;;-144.09;54.71
8890;BME280;4481;43.406;24.454;2023-04-15T10:08:21;75809.88;;;-144.09;54.71
8890;BME280;4481;43.406;24.454;2023-04-15T10:10:48;75845.38;;;-144.09;55.21
8890;BME280;4481;43.406;24.454;2023-04-15T10:13:18;75809.88;;;-144.09;55.48
8890;BME280;4481;43.406;24.454;2023-04-15T10:15:49;75822.41;;;-144.09;54.40
8890;BME280;4481;43.406;24.454;2023-04-15T10:18:19;75795.25;;;-144.09;55.17
8890;BME280;4481;43.406;24.454;2023-04-15T10:20:47;75782.72;;;-144.09;54.35
8890;BME280;4481;43.406;24.454;2023-04-15T10:23:14;75770.16;;;-144.09;54.01
8890;BME280;4481;43.406;24.454;2023-04-15T10:25:40;75730.47;;;-144.09;51.88
8890;BME280;4481;43.406;24.454;2023-04-15T10:28:07;75705.41;;;-144.09;51.65
8890;BME280;4481;43.406;24.454;2023-04-15T10:30:34;75669.91;;;-144.09;50.28
8890;BME280;4481;43.406;24.454;2023-04-15T10:33:02;75705.41;;;-144.09;50.00
8890;BME280;4481;43.406;24.454;2023-04-15T10:35:30;75676.16;;;-144.09;50.00
8890;BME280;4481;43.406;24.454;2023-04-15T10:37:57;75623.94;;;-144.09;49.85
8890;BME280;4481;43.406;24.454;2023-04-15T10:40:28;75626.03;;;-144.09;48.78
8890;BME280;4481;43.406;24.454;2023-04-15T10:42:56;75586.34;;;-144.09;47.84
8890;BME280;4481;43.406;24.454;2023-04-15T10:45:25;75555.00;;;-144.09;46.62
8890;BME280;4481;43.406;24.454;2023-04-15T10:47:54;75519.50;;;-144.09;45.44
8890;BME280;4481;43.406;24.454;2023-04-15T10:50:20;75511.13;;;-144.09;44.87
8890;BME280;4481;43.406;24.454;2023-04-15T10:52:49;75483.97;;;-144.09;45.93
8890;BME280;4481;43.406;24.454;2023-04-15T10:55:18;75454.75;;;-144.09;45.16
8890;BME280;4481;43.406;24.454;2023-04-15T10:57:45;75500.69;;;-144.09;42.90
8890;BME280;4481;43.406;24.454;2023-04-15T11:00:13;75584.25;;;-144.09;44.51
8890;BME280;4481;43.406;24.454;2023-04-15T11:02:44;75557.09;;;-144.09;44.85
8890;BME280;4481;43.406;24.454;2023-04-15T11:05:12;75502.78;;;-144.09;45.84
8890;BME280;4481;43.406;24.454;2023-04-15T11:07:47;75511.13;;;-144.09;43.73
8890;BME280;4481;43.406;24.454;2023-04-15T11:13:26;75550.81;;;-144.09;44.63
8890;BME280;4481;43.406;24.454;2023-04-15T11:15:58;75544.56;;;-144.09;44.22
8890;BME280;4481;43.406;24.454;2023-04-15T11:18:27;75532.03;;;-144.09;45.01
8890;BME280;4481;43.406;24.454;2023-04-15T11:20:56;75519.50;;;-144.09;43.29
8890;BME280;4481;43.406;24.454;2023-04-15T11:23:29;75519.50;;;-144.09;43.55
8890;BME280;4481;43.406;24.454;2023-04-15T11:25:55;75532.03;;;-144.09;44.30
8890;BME280;4481;43.406;24.454;2023-04-15T11:28:25;75534.13;;;-144.09;43.40
8890;BME280;4481;43.406;24.454;2023-04-15T11:30:52;75494.44;;;-144.09;44.37
8890;BME280;4481;43.406;24.454;2023-04-15T11:33:20;75513.22;;;-144.09;42.98
8890;BME280;4481;43.406;24.454;2023-04-15T11:35:47;75479.81;;;-144.09;42.21
8890;BME280;4481;43.406;24.454;2023-04-15T11:38:14;75515.31;;;-144.09;42.06
8890;BME280;4481;43.406;24.454;2023-04-15T11:40:41;75559.19;;;-144.09;41.83
8890;BME280;4481;43.406;24.454;2023-04-15T11:43:09;75559.19;;;-144.09;42.28
8890;BME280;4481;43.406;24.454;2023-04-15T11:45:38;75582.16;;;-144.09;42.37
8890;BME280;4481;43.406;24.454;2023-04-15T11:48:12;75546.66;;;-144.09;42.12
8890;BME280;4481;43.406;24.454;2023-04-15T11:50:39;75529.94;;;-144.09;41.37
8890;BME280;4481;43.406;24.454;2023-04-15T11:53:07;75509.03;;;-144.09;42.15
8890;BME280;4481;43.406;24.454;2023-04-15T11:55:41;75471.44;;;-144.09;41.28
8890;BME280;4481;43.406;24.454;2023-04-15T11:58:09;75540.38;;;-144.09;42.58
8890;BME280;4481;43.406;24.454;2023-04-15T12:00:37;75586.34;;;-144.09;43.24
8890;BME280;4481;43.406;24.454;2023-04-15T12:03:11;75569.63;;;-144.09;42.62
8890;BME280;4481;43.406;24.454;2023-04-15T12:06:11;75557.09;;;-144.09;41.78
8890;BME280;4481;43.406;24.454;2023-04-15T12:09:02;75479.81;;;-144.09;40.41
8890;BME280;4481;43.406;24.454;2023-04-15T12:11:44;75502.78;;;-144.09;40.46
8890;BME280;4481;43.406;24.454;2023-04-15T12:14:15;75506.97;;;-144.09;41.44
8890;BME280;4481;43.406;24.454;2023-04-15T12:16:44;75511.13;;;-144.09;42.22
8890;BME280;4481;43.406;24.454;2023-04-15T12:19:12;75519.50;;;-144.09;42.53
8890;BME280;4481;43.406;24.454;2023-04-15T12:21:41;75534.13;;;-144.09;41.69
8890;BME280;4481;43.406;24.454;2023-04-15T12:24:10;75527.84;;;-144.09;43.11
8890;BME280;4481;43.406;24.454;2023-04-15T12:26:42;75544.56;;;-144.09;42.29
8890;BME280;4481;43.406;24.454;2023-04-15T12:29:11;75552.91;;;-144.09;42.02
8890;BME280;4481;43.406;24.454;2023-04-15T12:31:46;75571.72;;;-144.09;42.11
8890;BME280;4481;43.406;24.454;2023-04-15T12:34:14;75542.47;;;-144.09;42.41
8890;BME280;4481;43.406;24.454;2023-04-15T12:36:40;75529.94;;;-144.09;41.31
8890;BME280;4481;43.406;24.454;2023-04-15T12:39:06;75521.59;;;-144.09;40.46
8890;BME280;4481;43.406;24.454;2023-04-15T12:41:33;75500.69;;;-144.09;41.57
8890;BME280;4481;43.406;24.454;2023-04-15T12:43:59;75483.97;;;-144.09;41.69
8890;BME280;4481;43.406;24.454;2023-04-15T12:46:25;75452.66;;;-144.09;41.25
8890;BME280;4481;43.406;24.454;2023-04-15T12:48:52;75519.50;;;-144.09;40.39